Hubly, Illinois
Current Conditions -  °F | °C
As of 2:52 AM on Friday 21 Nov 2014 (Local Time) from KSPI Reporting Station
Clear Clear  
Wind Chill: 14°   Ceiling: Unl
Heat Index: 14°   Visibility: 10mi
Dew Point:   Wind: 3mph
Humidity: 77%   Direction: 150°SSE
Pressure: 30.41"   Gusts: NA
Location:  40.0814°N, 89.6743°W
Report Text: KSPI 210852Z AUTO 15003KT 10SM CLR M10/M13 A3041 RMK AO2 SLP305 T11001133 53016
Loading
Personal Weather Stations






























Interactive Weather Map New forecast layout! Learn more

10-Day Weather Forecast

Advertisements
Track Severe Weather on mobile